McNabs Island, Nova Scotia

10:51 PM ADT on September 03, 2015 (GMT -0300)
Francklyn Street | | Change Station
CLOSE
Current Station
Personal Weather Station
Location: Halifax, NS
Elevation: 121 ft
Nearby Weather Stations

Elev 121 ft 44.62 °N, 63.57 °W | Updated 6 seconds ago

Partly Cloudy
Partly Cloudy
63.2 °F
Feels Like 63.2 °F
N
0.0
Wind Variable Wind from ENE
Gusts 0.0 mph

Today
High -- | Low -- °F
--% Chance of Precip.
Yesterday
High -- | Low -- °F
Precip. -- in
6:38 AM 7:47 PM
Waning Gibbous, 65% visible
Pressure 29.93 in
Visibility 15.0 miles
Clouds Few 3500 ft
Dew Point 57 °F
Humidity 80%
Rainfall 0.00 in
Snow Depth Not available.
UV 0 out of 12
Pollen Not available.
Air Quality Not available.
Flu Activity Not available.
METAR CYAW 040100Z 03008KT 15SM FEW035 18/14 A2992 RMK CF1 DA723FT SLP134
Pressure 29.93 in
Visibility 15.0 miles
Clouds Few 3500 ft
Dew Point 57 °F
Humidity 80%
Rainfall 0.00 in
Snow Depth Not available.
UV 0 out of 12
Pollen Not available.
Air Quality Not available.
Flu Activity Not available.
METAR CYAW 040100Z 03008KT 15SM FEW035 18/14 A2992 RMK CF1 DA723FT SLP134

10-Day Weather Forecast

×

Almanac

Astronomy

Sep. 03, 2015 Rise Set
Actual Time
Civil Twilight
Nautical Twilight
Astronomical Twilight
Moon
Length of Visible Light
Length of Day
Tomorrow will be .
, % of the Moon is Illuminated

Today's Extremes

Country Highs Country Lows

Community

WunderPhotos

Upload Photos

1,852,088 photos uploaded!

WunderBlogs® & News

Nearby

Air Quality

  Air Quality AQ Index Pollutant
Not available.

Snow Depth

Station Depth Elevation

Earthquake Activity

City Distance Mag. Time & Date
Minimum magnitude displayed is 2.5.

Coastal Water Temperatures

Place Temperature

Stations

Nearby Weather Stations

Station Location Temp. Windchill Dew Point Humidity Wind Precip. Elev Updated Type